sensor_id;sensor_type;location;lat;lon;timestamp;pressure;altitude;pressure_sealevel;temperature;humidity
80627;BME280;69982;51.758;5.784;2023-08-12T00:00:03;101743.23;;;23.47;69.66
80627;BME280;69982;51.758;5.784;2023-08-12T00:02:58;101739.37;;;23.46;69.77
80627;BME280;69982;51.758;5.784;2023-08-12T00:05:27;101734.86;;;23.41;69.64
80627;BME280;69982;51.758;5.784;2023-08-12T00:07:54;101731.08;;;23.39;69.77
80627;BME280;69982;51.758;5.784;2023-08-12T00:10:22;101727.73;;;23.37;69.74
80627;BME280;69982;51.758;5.784;2023-08-12T00:12:49;101724.89;;;23.37;70.12
80627;BME280;69982;51.758;5.784;2023-08-12T00:15:17;101724.30;;;23.35;69.95
80627;BME280;69982;51.758;5.784;2023-08-12T00:17:45;101720.83;;;23.33;70.00
80627;BME280;69982;51.758;5.784;2023-08-12T00:20:12;101722.46;;;23.32;70.02
80627;BME280;69982;51.758;5.784;2023-08-12T00:22:40;101720.54;;;23.27;70.03
80627;BME280;69982;51.758;5.784;2023-08-12T00:25:08;101722.98;;;23.22;70.09
80627;BME280;69982;51.758;5.784;2023-08-12T00:27:36;101716.67;;;23.17;70.16
80627;BME280;69982;51.758;5.784;2023-08-12T00:30:05;101716.66;;;23.15;70.21
80627;BME280;69982;51.758;5.784;2023-08-12T00:32:33;101721.76;;;23.13;70.27
80627;BME280;69982;51.758;5.784;2023-08-12T00:35:01;101718.48;;;23.12;70.46
80627;BME280;69982;51.758;5.784;2023-08-12T00:37:30;101718.73;;;23.08;70.71
80627;BME280;69982;51.758;5.784;2023-08-12T00:39:57;101712.01;;;23.06;70.69
80627;BME280;69982;51.758;5.784;2023-08-12T00:42:26;101712.40;;;23.06;70.60
80627;BME280;69982;51.758;5.784;2023-08-12T00:44:53;101710.15;;;23.05;70.82
80627;BME280;69982;51.758;5.784;2023-08-12T00:47:21;101704.20;;;23.03;70.97
80627;BME280;69982;51.758;5.784;2023-08-12T00:49:49;101697.58;;;22.99;71.08
80627;BME280;69982;51.758;5.784;2023-08-12T00:52:17;101692.42;;;22.95;71.52
80627;BME280;69982;51.758;5.784;2023-08-12T00:54:45;101686.88;;;22.91;71.71
80627;BME280;69982;51.758;5.784;2023-08-12T00:57:13;101682.55;;;22.90;71.67
80627;BME280;69982;51.758;5.784;2023-08-12T00:59:41;101678.55;;;22.89;71.85
80627;BME280;69982;51.758;5.784;2023-08-12T01:02:11;101676.27;;;22.87;72.00
80627;BME280;69982;51.758;5.784;2023-08-12T01:04:39;101675.16;;;22.86;71.98
80627;BME280;69982;51.758;5.784;2023-08-12T01:07:07;101678.09;;;22.87;72.02
80627;BME280;69982;51.758;5.784;2023-08-12T01:09:35;101678.55;;;22.89;71.74
80627;BME280;69982;51.758;5.784;2023-08-12T01:12:33;101674.20;;;22.90;72.06
80627;BME280;69982;51.758;5.784;2023-08-12T01:15:11;101671.49;;;22.87;72.07
80627;BME280;69982;51.758;5.784;2023-08-12T01:17:42;101671.45;;;22.87;72.30
80627;BME280;69982;51.758;5.784;2023-08-12T01:20:11;101668.00;;;22.87;72.00
80627;BME280;69982;51.758;5.784;2023-08-12T01:22:44;101662.62;;;22.88;72.36
80627;BME280;69982;51.758;5.784;2023-08-12T01:25:11;101657.84;;;22.84;72.38
80627;BME280;69982;51.758;5.784;2023-08-12T01:27:39;101662.02;;;22.85;72.23
80627;BME280;69982;51.758;5.784;2023-08-12T01:30:07;101663.13;;;22.84;72.21
80627;BME280;69982;51.758;5.784;2023-08-12T01:38:06;101646.83;;;22.74;72.58
80627;BME280;69982;51.758;5.784;2023-08-12T01:40:36;101648.08;;;22.73;72.57
80627;BME280;69982;51.758;5.784;2023-08-12T01:43:05;101642.05;;;22.70;72.82
80627;BME280;69982;51.758;5.784;2023-08-12T01:45:34;101638.34;;;22.70;72.88
80627;BME280;69982;51.758;5.784;2023-08-12T01:48:03;101633.64;;;22.72;72.80
80627;BME280;69982;51.758;5.784;2023-08-12T01:50:31;101632.30;;;22.75;72.90
80627;BME280;69982;51.758;5.784;2023-08-12T01:52:58;101629.64;;;22.77;72.88
80627;BME280;69982;51.758;5.784;2023-08-12T01:55:26;101629.07;;;22.78;72.89
80627;BME280;69982;51.758;5.784;2023-08-12T01:57:54;101625.85;;;22.77;73.14
80627;BME280;69982;51.758;5.784;2023-08-12T02:00:22;101621.52;;;22.75;73.24
80627;BME280;69982;51.758;5.784;2023-08-12T02:02:49;101620.30;;;22.73;73.09
80627;BME280;69982;51.758;5.784;2023-08-12T02:05:17;101619.41;;;22.72;73.26
80627;BME280;69982;51.758;5.784;2023-08-12T02:07:44;101622.27;;;22.73;73.04
80627;BME280;69982;51.758;5.784;2023-08-12T02:10:12;101625.91;;;22.75;72.96
80627;BME280;69982;51.758;5.784;2023-08-12T02:12:41;101618.55;;;22.73;73.04
80627;BME280;69982;51.758;5.784;2023-08-12T02:15:09;101620.54;;;22.75;73.20
80627;BME280;69982;51.758;5.784;2023-08-12T02:17:37;101615.67;;;22.71;73.17
80627;BME280;69982;51.758;5.784;2023-08-12T02:20:05;101615.08;;;22.72;73.20
80627;BME280;69982;51.758;5.784;2023-08-12T02:22:33;101615.74;;;22.73;72.99
80627;BME280;69982;51.758;5.784;2023-08-12T02:25:01;101613.01;;;22.74;72.84
80627;BME280;69982;51.758;5.784;2023-08-12T02:27:28;101603.56;;;22.72;73.05
80627;BME280;69982;51.758;5.784;2023-08-12T02:29:56;101607.45;;;22.76;73.05
80627;BME280;69982;51.758;5.784;2023-08-12T02:32:24;101613.27;;;22.77;73.20
80627;BME280;69982;51.758;5.784;2023-08-12T02:34:52;101611.72;;;22.75;73.09
80627;BME280;69982;51.758;5.784;2023-08-12T02:37:19;101610.88;;;22.74;73.18
80627;BME280;69982;51.758;5.784;2023-08-12T02:39:47;101603.66;;;22.71;73.30
80627;BME280;69982;51.758;5.784;2023-08-12T02:42:14;101594.58;;;22.64;73.21
80627;BME280;69982;51.758;5.784;2023-08-12T02:44:42;101597.90;;;22.64;73.12
80627;BME280;69982;51.758;5.784;2023-08-12T02:47:10;101599.86;;;22.63;73.17
80627;BME280;69982;51.758;5.784;2023-08-12T02:49:37;101600.64;;;22.61;73.19
80627;BME280;69982;51.758;5.784;2023-08-12T02:52:05;101598.10;;;22.60;73.30
80627;BME280;69982;51.758;5.784;2023-08-12T02:54:33;101585.92;;;22.59;73.45
80627;BME280;69982;51.758;5.784;2023-08-12T02:57:00;101589.78;;;22.61;73.01
80627;BME280;69982;51.758;5.784;2023-08-12T02:59:28;101584.46;;;22.61;73.17
80627;BME280;69982;51.758;5.784;2023-08-12T03:01:57;101584.13;;;22.61;73.20
80627;BME280;69982;51.758;5.784;2023-08-12T03:04:24;101579.30;;;22.61;73.19
80627;BME280;69982;51.758;5.784;2023-08-12T03:06:52;101566.60;;;22.55;73.01
80627;BME280;69982;51.758;5.784;2023-08-12T03:09:20;101569.90;;;22.56;73.22
80627;BME280;69982;51.758;5.784;2023-08-12T03:11:47;101570.46;;;22.56;73.18
80627;BME280;69982;51.758;5.784;2023-08-12T03:14:15;101563.65;;;22.55;73.20
80627;BME280;69982;51.758;5.784;2023-08-12T03:16:43;101560.81;;;22.54;73.42
80627;BME280;69982;51.758;5.784;2023-08-12T03:19:10;101562.59;;;22.56;73.46
80627;BME280;69982;51.758;5.784;2023-08-12T03:21:38;101557.42;;;22.57;73.43
80627;BME280;69982;51.758;5.784;2023-08-12T03:24:06;101551.91;;;22.58;73.27
80627;BME280;69982;51.758;5.784;2023-08-12T03:26:34;101552.10;;;22.60;73.40
80627;BME280;69982;51.758;5.784;2023-08-12T03:29:01;101545.89;;;22.60;73.63
80627;BME280;69982;51.758;5.784;2023-08-12T03:31:29;101545.56;;;22.58;73.57
80627;BME280;69982;51.758;5.784;2023-08-12T03:33:57;101542.23;;;22.56;73.73
80627;BME280;69982;51.758;5.784;2023-08-12T03:36:25;101536.86;;;22.55;73.75
80627;BME280;69982;51.758;5.784;2023-08-12T03:38:52;101538.35;;;22.55;73.63
80627;BME280;69982;51.758;5.784;2023-08-12T03:41:20;101532.45;;;22.53;73.67
80627;BME280;69982;51.758;5.784;2023-08-12T03:43:48;101527.89;;;22.51;73.62
80627;BME280;69982;51.758;5.784;2023-08-12T03:46:17;101529.30;;;22.54;73.60
80627;BME280;69982;51.758;5.784;2023-08-12T03:48:44;101526.94;;;22.56;73.81
80627;BME280;69982;51.758;5.784;2023-08-12T03:51:12;101527.21;;;22.54;73.65
80627;BME280;69982;51.758;5.784;2023-08-12T03:53:39;101527.52;;;22.53;73.65
80627;BME280;69982;51.758;5.784;2023-08-12T03:56:07;101526.33;;;22.53;73.59
80627;BME280;69982;51.758;5.784;2023-08-12T03:58:35;101521.57;;;22.47;73.73
80627;BME280;69982;51.758;5.784;2023-08-12T04:01:03;101519.98;;;22.45;73.97
80627;BME280;69982;51.758;5.784;2023-08-12T04:03:30;101517.90;;;22.44;74.01
80627;BME280;69982;51.758;5.784;2023-08-12T04:05:58;101513.43;;;22.44;74.05
80627;BME280;69982;51.758;5.784;2023-08-12T04:08:26;101516.17;;;22.43;73.88
80627;BME280;69982;51.758;5.784;2023-08-12T04:10:54;101516.42;;;22.44;74.04
80627;BME280;69982;51.758;5.784;2023-08-12T04:13:22;101515.02;;;22.43;73.84
80627;BME280;69982;51.758;5.784;2023-08-12T04:15:50;101507.31;;;22.43;73.84
80627;BME280;69982;51.758;5.784;2023-08-12T04:18:19;101509.64;;;22.43;74.03
80627;BME280;69982;51.758;5.784;2023-08-12T04:20:48;101509.77;;;22.44;74.01
80627;BME280;69982;51.758;5.784;2023-08-12T04:23:16;101504.27;;;22.45;73.85
80627;BME280;69982;51.758;5.784;2023-08-12T04:25:45;101502.92;;;22.46;73.65
80627;BME280;69982;51.758;5.784;2023-08-12T04:28:14;101508.99;;;22.49;73.61
80627;BME280;69982;51.758;5.784;2023-08-12T04:30:44;101508.78;;;22.49;73.70
80627;BME280;69982;51.758;5.784;2023-08-12T04:33:12;101504.48;;;22.48;74.30
80627;BME280;69982;51.758;5.784;2023-08-12T04:35:40;101506.27;;;22.49;74.00
80627;BME280;69982;51.758;5.784;2023-08-12T04:38:08;101501.17;;;22.47;73.81
80627;BME280;69982;51.758;5.784;2023-08-12T04:40:38;101494.03;;;22.43;74.00
80627;BME280;69982;51.758;5.784;2023-08-12T04:43:08;101490.73;;;22.40;74.07
80627;BME280;69982;51.758;5.784;2023-08-12T04:45:36;101484.80;;;22.38;74.13
80627;BME280;69982;51.758;5.784;2023-08-12T04:48:04;101477.11;;;22.31;74.04
80627;BME280;69982;51.758;5.784;2023-08-12T04:50:32;101477.30;;;22.30;74.36
80627;BME280;69982;51.758;5.784;2023-08-12T04:53:02;101471.50;;;22.27;74.32
80627;BME280;69982;51.758;5.784;2023-08-12T04:55:30;101472.80;;;22.28;74.10
80627;BME280;69982;51.758;5.784;2023-08-12T04:57:58;101470.94;;;22.28;74.05
80627;BME280;69982;51.758;5.784;2023-08-12T05:00:26;101473.31;;;22.29;73.79
80627;BME280;69982;51.758;5.784;2023-08-12T05:02:55;101477.36;;;22.29;74.14
80627;BME280;69982;51.758;5.784;2023-08-12T05:05:22;101477.59;;;22.26;74.21
80627;BME280;69982;51.758;5.784;2023-08-12T05:07:50;101478.02;;;22.20;74.18
80627;BME280;69982;51.758;5.784;2023-08-12T05:10:18;101479.29;;;22.18;74.43
80627;BME280;69982;51.758;5.784;2023-08-12T05:12:45;101476.55;;;22.16;74.41
80627;BME280;69982;51.758;5.784;2023-08-12T05:15:14;101471.86;;;22.11;74.48
80627;BME280;69982;51.758;5.784;2023-08-12T05:17:42;101468.05;;;22.10;74.44
80627;BME280;69982;51.758;5.784;2023-08-12T05:20:10;101462.93;;;22.11;74.63
80627;BME280;69982;51.758;5.784;2023-08-12T05:22:38;101461.16;;;22.09;74.74
80627;BME280;69982;51.758;5.784;2023-08-12T05:25:06;101465.23;;;22.05;74.68
80627;BME280;69982;51.758;5.784;2023-08-12T05:27:33;101470.63;;;21.99;74.77
80627;BME280;69982;51.758;5.784;2023-08-12T05:30:01;101469.14;;;21.93;75.03
80627;BME280;69982;51.758;5.784;2023-08-12T05:32:28;101474.11;;;21.89;74.98
80627;BME280;69982;51.758;5.784;2023-08-12T05:34:56;101471.16;;;21.84;74.87
80627;BME280;69982;51.758;5.784;2023-08-12T05:37:24;101455.83;;;21.82;75.25
80627;BME280;69982;51.758;5.784;2023-08-12T05:39:51;101448.86;;;21.82;75.34
80627;BME280;69982;51.758;5.784;2023-08-12T05:42:19;101447.66;;;21.79;75.43
80627;BME280;69982;51.758;5.784;2023-08-12T05:44:47;101442.76;;;21.78;75.49
80627;BME280;69982;51.758;5.784;2023-08-12T05:47:14;101447.39;;;21.75;75.49
80627;BME280;69982;51.758;5.784;2023-08-12T05:49:42;101451.54;;;21.71;75.54
80627;BME280;69982;51.758;5.784;2023-08-12T05:52:09;101457.09;;;21.69;75.46
80627;BME280;69982;51.758;5.784;2023-08-12T05:54:37;101452.57;;;21.64;75.77
80627;BME280;69982;51.758;5.784;2023-08-12T05:57:05;101447.99;;;21.63;75.95
80627;BME280;69982;51.758;5.784;2023-08-12T05:59:33;101441.91;;;21.62;76.11
80627;BME280;69982;51.758;5.784;2023-08-12T06:02:00;101450.84;;;21.62;76.09
80627;BME280;69982;51.758;5.784;2023-08-12T06:04:28;101447.39;;;21.62;76.27
80627;BME280;69982;51.758;5.784;2023-08-12T06:06:55;101449.45;;;21.60;76.40
80627;BME280;69982;51.758;5.784;2023-08-12T06:09:23;101447.63;;;21.60;76.41
80627;BME280;69982;51.758;5.784;2023-08-12T06:11:51;101451.69;;;21.56;76.37
80627;BME280;69982;51.758;5.784;2023-08-12T06:14:18;101446.89;;;21.51;76.09
80627;BME280;69982;51.758;5.784;2023-08-12T06:16:46;101451.19;;;21.50;76.32
80627;BME280;69982;51.758;5.784;2023-08-12T06:19:13;101445.34;;;21.47;76.16
80627;BME280;69982;51.758;5.784;2023-08-12T06:21:41;101443.09;;;21.46;76.24
80627;BME280;69982;51.758;5.784;2023-08-12T06:24:09;101442.34;;;21.44;76.51
80627;BME280;69982;51.758;5.784;2023-08-12T06:26:37;101435.89;;;21.43;76.55
80627;BME280;69982;51.758;5.784;2023-08-12T06:29:04;101434.60;;;21.44;76.72
80627;BME280;69982;51.758;5.784;2023-08-12T06:31:32;101432.02;;;21.44;76.71
80627;BME280;69982;51.758;5.784;2023-08-12T06:34:00;101420.34;;;21.42;76.78
80627;BME280;69982;51.758;5.784;2023-08-12T06:36:28;101422.23;;;21.40;76.71
80627;BME280;69982;51.758;5.784;2023-08-12T06:38:56;101422.32;;;21.38;76.64
80627;BME280;69982;51.758;5.784;2023-08-12T06:41:24;101424.70;;;21.40;76.77
80627;BME280;69982;51.758;5.784;2023-08-12T06:43:52;101423.82;;;21.42;76.81
80627;BME280;69982;51.758;5.784;2023-08-12T06:46:19;101415.20;;;21.43;76.81
80627;BME280;69982;51.758;5.784;2023-08-12T06:48:47;101414.79;;;21.46;76.93
80627;BME280;69982;51.758;5.784;2023-08-12T06:51:15;101413.25;;;21.46;77.03
80627;BME280;69982;51.758;5.784;2023-08-12T06:53:42;101409.46;;;21.47;77.09
80627;BME280;69982;51.758;5.784;2023-08-12T06:56:10;101413.98;;;21.51;76.89
80627;BME280;69982;51.758;5.784;2023-08-12T06:58:38;101414.73;;;21.54;77.00
80627;BME280;69982;51.758;5.784;2023-08-12T07:01:05;101412.46;;;21.54;76.82
80627;BME280;69982;51.758;5.784;2023-08-12T07:03:33;101414.55;;;21.54;76.79
80627;BME280;69982;51.758;5.784;2023-08-12T07:06:01;101412.11;;;21.55;76.74
80627;BME280;69982;51.758;5.784;2023-08-12T07:08:28;101410.84;;;21.56;76.91
80627;BME280;69982;51.758;5.784;2023-08-12T07:10:56;101406.98;;;21.54;76.70
80627;BME280;69982;51.758;5.784;2023-08-12T07:13:24;101408.64;;;21.54;76.75
80627;BME280;69982;51.758;5.784;2023-08-12T07:15:51;101405.63;;;21.54;76.88
80627;BME280;69982;51.758;5.784;2023-08-12T07:18:19;101396.63;;;21.53;76.97
80627;BME280;69982;51.758;5.784;2023-08-12T07:20:47;101389.08;;;21.50;77.28
80627;BME280;69982;51.758;5.784;2023-08-12T07:23:14;101392.48;;;21.51;77.22
80627;BME280;69982;51.758;5.784;2023-08-12T07:25:42;101390.52;;;21.49;77.32
80627;BME280;69982;51.758;5.784;2023-08-12T07:28:10;101387.27;;;21.48;77.19
80627;BME280;69982;51.758;5.784;2023-08-12T07:30:37;101386.79;;;21.50;77.33
80627;BME280;69982;51.758;5.784;2023-08-12T07:33:05;101383.85;;;21.50;77.59
80627;BME280;69982;51.758;5.784;2023-08-12T07:35:33;101383.15;;;21.52;77.51
80627;BME280;69982;51.758;5.784;2023-08-12T07:38:00;101380.93;;;21.53;77.47
80627;BME280;69982;51.758;5.784;2023-08-12T07:40:28;101377.59;;;21.51;77.49
80627;BME280;69982;51.758;5.784;2023-08-12T07:42:56;101378.58;;;21.55;77.36
80627;BME280;69982;51.758;5.784;2023-08-12T07:45:23;101380.77;;;21.58;77.68
80627;BME280;69982;51.758;5.784;2023-08-12T07:47:51;101379.50;;;21.61;77.50
80627;BME280;69982;51.758;5.784;2023-08-12T07:50:19;101377.67;;;21.66;77.63
80627;BME280;69982;51.758;5.784;2023-08-12T07:52:47;101378.27;;;21.71;77.42
80627;BME280;69982;51.758;5.784;2023-08-12T07:55:14;101379.81;;;21.74;77.40
80627;BME280;69982;51.758;5.784;2023-08-12T07:57:44;101376.24;;;21.73;77.62
80627;BME280;69982;51.758;5.784;2023-08-12T08:00:12;101375.11;;;21.72;77.41
80627;BME280;69982;51.758;5.784;2023-08-12T08:02:40;101376.98;;;21.72;77.48
80627;BME280;69982;51.758;5.784;2023-08-12T08:05:08;101375.37;;;21.72;77.73
80627;BME280;69982;51.758;5.784;2023-08-12T08:07:36;101373.19;;;21.68;77.84
80627;BME280;69982;51.758;5.784;2023-08-12T08:10:03;101373.42;;;21.67;77.93
80627;BME280;69982;51.758;5.784;2023-08-12T08:12:31;101369.08;;;21.67;78.27
80627;BME280;69982;51.758;5.784;2023-08-12T08:14:59;101359.73;;;21.67;78.24
80627;BME280;69982;51.758;5.784;2023-08-12T08:17:27;101363.38;;;21.67;78.43
80627;BME280;69982;51.758;5.784;2023-08-12T08:19:56;101361.51;;;21.71;78.53
80627;BME280;69982;51.758;5.784;2023-08-12T08:22:25;101360.38;;;21.73;78.74
80627;BME280;69982;51.758;5.784;2023-08-12T08:24:52;101366.03;;;21.74;78.55
80627;BME280;69982;51.758;5.784;2023-08-12T08:27:21;101369.42;;;21.76;78.70
80627;BME280;69982;51.758;5.784;2023-08-12T08:29:48;101373.23;;;21.77;78.69
80627;BME280;69982;51.758;5.784;2023-08-12T08:32:16;101373.61;;;21.77;79.04
80627;BME280;69982;51.758;5.784;2023-08-12T08:34:44;101374.49;;;21.79;78.88
80627;BME280;69982;51.758;5.784;2023-08-12T08:37:11;101377.20;;;21.80;79.13
80627;BME280;69982;51.758;5.784;2023-08-12T08:39:39;101376.23;;;21.79;79.12
80627;BME280;69982;51.758;5.784;2023-08-12T08:42:10;101380.13;;;21.82;79.02
80627;BME280;69982;51.758;5.784;2023-08-12T08:44:40;101375.33;;;21.85;79.08
80627;BME280;69982;51.758;5.784;2023-08-12T08:47:09;101376.77;;;21.89;79.08
80627;BME280;69982;51.758;5.784;2023-08-12T08:49:38;101375.92;;;21.94;79.00
80627;BME280;69982;51.758;5.784;2023-08-12T08:52:06;101378.08;;;21.95;78.81
80627;BME280;69982;51.758;5.784;2023-08-12T08:54:34;101384.08;;;22.00;78.77
80627;BME280;69982;51.758;5.784;2023-08-12T08:57:01;101389.83;;;22.03;78.99
80627;BME280;69982;51.758;5.784;2023-08-12T08:59:30;101393.59;;;22.02;78.85
80627;BME280;69982;51.758;5.784;2023-08-12T09:01:58;101397.81;;;22.03;79.11
80627;BME280;69982;51.758;5.784;2023-08-12T09:04:27;101404.91;;;22.02;78.82
80627;BME280;69982;51.758;5.784;2023-08-12T09:06:56;101399.94;;;22.02;79.09
80627;BME280;69982;51.758;5.784;2023-08-12T09:09:24;101401.48;;;22.04;79.00
80627;BME280;69982;51.758;5.784;2023-08-12T09:11:54;101401.30;;;22.04;79.11
80627;BME280;69982;51.758;5.784;2023-08-12T09:14:23;101405.65;;;22.00;78.76
80627;BME280;69982;51.758;5.784;2023-08-12T09:16:51;101408.16;;;21.99;79.08
80627;BME280;69982;51.758;5.784;2023-08-12T09:19:19;101407.44;;;21.99;78.77
80627;BME280;69982;51.758;5.784;2023-08-12T09:21:52;101414.35;;;21.97;78.44
80627;BME280;69982;51.758;5.784;2023-08-12T09:24:27;101415.27;;;21.93;78.03
80627;BME280;69982;51.758;5.784;2023-08-12T09:26:55;101420.33;;;21.89;77.44
80627;BME280;69982;51.758;5.784;2023-08-12T09:29:23;101418.48;;;21.84;77.00
80627;BME280;69982;51.758;5.784;2023-08-12T09:31:54;101418.02;;;21.81;77.13
80627;BME280;69982;51.758;5.784;2023-08-12T09:34:23;101425.83;;;21.84;77.70
80627;BME280;69982;51.758;5.784;2023-08-12T09:36:51;101431.30;;;21.90;77.75
80627;BME280;69982;51.758;5.784;2023-08-12T09:39:19;101432.16;;;21.94;77.63
80627;BME280;69982;51.758;5.784;2023-08-12T09:41:46;101434.83;;;22.00;78.02
80627;BME280;69982;51.758;5.784;2023-08-12T09:44:14;101437.95;;;22.03;77.92
80627;BME280;69982;51.758;5.784;2023-08-12T09:46:42;101447.33;;;22.04;77.30
80627;BME280;69982;51.758;5.784;2023-08-12T09:49:10;101448.79;;;22.04;77.17
80627;BME280;69982;51.758;5.784;2023-08-12T09:51:37;101446.02;;;22.03;77.02
80627;BME280;69982;51.758;5.784;2023-08-12T09:54:08;101441.77;;;22.04;76.97
80627;BME280;69982;51.758;5.784;2023-08-12T09:56:36;101437.35;;;22.07;76.84
80627;BME280;69982;51.758;5.784;2023-08-12T09:59:07;101431.11;;;22.10;76.89
80627;BME280;69982;51.758;5.784;2023-08-12T10:01:36;101426.20;;;22.12;76.67
80627;BME280;69982;51.758;5.784;2023-08-12T10:04:10;101425.73;;;22.15;76.68
80627;BME280;69982;51.758;5.784;2023-08-12T10:06:40;101420.23;;;22.12;76.26
80627;BME280;69982;51.758;5.784;2023-08-12T10:09:09;101425.09;;;22.12;76.21
80627;BME280;69982;51.758;5.784;2023-08-12T10:11:38;101431.00;;;22.21;76.41
80627;BME280;69982;51.758;5.784;2023-08-12T10:14:08;101430.69;;;22.30;76.13
80627;BME280;69982;51.758;5.784;2023-08-12T10:16:36;101431.05;;;22.40;76.20
80627;BME280;69982;51.758;5.784;2023-08-12T10:19:11;101432.45;;;22.48;75.64
80627;BME280;69982;51.758;5.784;2023-08-12T10:21:39;101429.90;;;22.55;75.20
80627;BME280;69982;51.758;5.784;2023-08-12T10:24:08;101440.05;;;22.60;75.34
80627;BME280;69982;51.758;5.784;2023-08-12T10:26:36;101454.66;;;22.64;75.12
80627;BME280;69982;51.758;5.784;2023-08-12T10:29:04;101456.25;;;22.64;74.52
80627;BME280;69982;51.758;5.784;2023-08-12T10:31:31;101461.52;;;22.60;74.22
80627;BME280;69982;51.758;5.784;2023-08-12T10:33:59;101465.41;;;22.59;74.25
80627;BME280;69982;51.758;5.784;2023-08-12T10:36:27;101466.58;;;22.54;74.36
80627;BME280;69982;51.758;5.784;2023-08-12T10:38:56;101464.41;;;22.53;74.37
80627;BME280;69982;51.758;5.784;2023-08-12T10:41:24;101466.83;;;22.51;74.43
80627;BME280;69982;51.758;5.784;2023-08-12T10:43:54;101465.46;;;22.46;74.10
80627;BME280;69982;51.758;5.784;2023-08-12T10:46:29;101461.48;;;22.41;73.66
80627;BME280;69982;51.758;5.784;2023-08-12T10:49:09;101464.70;;;22.42;72.67
80627;BME280;69982;51.758;5.784;2023-08-12T10:51:45;101456.13;;;22.43;72.24
80627;BME280;69982;51.758;5.784;2023-08-12T10:54:20;101457.28;;;22.52;71.81
80627;BME280;69982;51.758;5.784;2023-08-12T10:59:46;101444.60;;;22.72;69.88
80627;BME280;69982;51.758;5.784;2023-08-12T11:02:44;101451.99;;;22.87;69.99
80627;BME280;69982;51.758;5.784;2023-08-12T11:05:13;101453.44;;;23.00;70.09
80627;BME280;69982;51.758;5.784;2023-08-12T11:07:55;101454.31;;;23.08;69.40
80627;BME280;69982;51.758;5.784;2023-08-12T11:10:25;101456.76;;;23.10;68.86
80627;BME280;69982;51.758;5.784;2023-08-12T11:12:54;101459.52;;;23.14;68.07
80627;BME280;69982;51.758;5.784;2023-08-12T11:15:33;101470.11;;;23.15;67.68
80627;BME280;69982;51.758;5.784;2023-08-12T11:18:06;101470.45;;;23.16;66.92
80627;BME280;69982;51.758;5.784;2023-08-12T11:20:35;101471.27;;;23.17;66.07
80627;BME280;69982;51.758;5.784;2023-08-12T11:23:03;101462.98;;;23.22;65.25
80627;BME280;69982;51.758;5.784;2023-08-12T11:25:33;101456.17;;;23.33;63.51
80627;BME280;69982;51.758;5.784;2023-08-12T11:28:01;101454.52;;;23.41;61.73
80627;BME280;69982;51.758;5.784;2023-08-12T11:30:29;101453.70;;;23.55;62.29
80627;BME280;69982;51.758;5.784;2023-08-12T11:33:00;101450.36;;;23.69;61.83
80627;BME280;69982;51.758;5.784;2023-08-12T11:35:28;101452.27;;;23.70;61.32
80627;BME280;69982;51.758;5.784;2023-08-12T11:37:58;101454.86;;;23.78;61.52
80627;BME280;69982;51.758;5.784;2023-08-12T11:40:27;101458.96;;;23.89;61.14
80627;BME280;69982;51.758;5.784;2023-08-12T11:42:55;101457.16;;;23.99;60.03
80627;BME280;69982;51.758;5.784;2023-08-12T11:45:23;101456.77;;;24.09;58.90
80627;BME280;69982;51.758;5.784;2023-08-12T11:47:52;101456.79;;;24.16;58.62
80627;BME280;69982;51.758;5.784;2023-08-12T11:50:22;101452.20;;;24.24;58.27
80627;BME280;69982;51.758;5.784;2023-08-12T11:52:51;101453.77;;;24.30;57.41
80627;BME280;69982;51.758;5.784;2023-08-12T11:55:19;101454.71;;;24.37;58.12
80627;BME280;69982;51.758;5.784;2023-08-12T11:57:47;101464.52;;;24.46;58.25
80627;BME280;69982;51.758;5.784;2023-08-12T12:00:15;101461.87;;;24.51;58.27
80627;BME280;69982;51.758;5.784;2023-08-12T12:02:47;101470.44;;;24.65;57.89
80627;BME280;69982;51.758;5.784;2023-08-12T12:05:17;101467.46;;;24.73;56.23
80627;BME280;69982;51.758;5.784;2023-08-12T12:07:48;101477.42;;;24.87;55.36
80627;BME280;69982;51.758;5.784;2023-08-12T12:10:25;101474.27;;;24.98;55.42
80627;BME280;69982;51.758;5.784;2023-08-12T12:12:55;101472.21;;;25.07;55.28
80627;BME280;69982;51.758;5.784;2023-08-12T12:15:23;101476.15;;;25.18;55.97
80627;BME280;69982;51.758;5.784;2023-08-12T12:17:50;101471.82;;;25.33;55.91
80627;BME280;69982;51.758;5.784;2023-08-12T12:20:19;101478.28;;;25.45;55.19
80627;BME280;69982;51.758;5.784;2023-08-12T12:22:48;101482.08;;;25.51;54.45
80627;BME280;69982;51.758;5.784;2023-08-12T12:25:17;101479.90;;;25.56;54.85
80627;BME280;69982;51.758;5.784;2023-08-12T12:27:48;101483.60;;;25.61;53.84
80627;BME280;69982;51.758;5.784;2023-08-12T12:30:16;101481.16;;;25.65;53.92
80627;BME280;69982;51.758;5.784;2023-08-12T12:32:43;101481.06;;;25.70;54.37
80627;BME280;69982;51.758;5.784;2023-08-12T12:35:12;101481.77;;;25.76;52.85
80627;BME280;69982;51.758;5.784;2023-08-12T12:37:40;101479.05;;;25.75;51.79
80627;BME280;69982;51.758;5.784;2023-08-12T12:40:08;101484.42;;;25.74;52.15
80627;BME280;69982;51.758;5.784;2023-08-12T12:42:37;101483.38;;;25.69;51.09
80627;BME280;69982;51.758;5.784;2023-08-12T12:45:06;101486.64;;;25.63;51.82
80627;BME280;69982;51.758;5.784;2023-08-12T12:47:34;101484.98;;;25.58;52.65
80627;BME280;69982;51.758;5.784;2023-08-12T12:50:01;101480.91;;;25.52;52.01
80627;BME280;69982;51.758;5.784;2023-08-12T12:52:29;101490.02;;;25.45;51.59
80627;BME280;69982;51.758;5.784;2023-08-12T12:54:56;101486.52;;;25.33;51.55
80627;BME280;69982;51.758;5.784;2023-08-12T12:57:25;101491.66;;;25.27;51.77
80627;BME280;69982;51.758;5.784;2023-08-12T12:59:52;101490.89;;;25.19;52.12
80627;BME280;69982;51.758;5.784;2023-08-12T13:02:20;101490.39;;;25.18;52.40
80627;BME280;69982;51.758;5.784;2023-08-12T13:04:48;101488.90;;;25.25;53.13